Time;durP1;ratioP1;P1;durP2;ratioP2;P2;SDS_P1;SDS_P2;PMS_P1;PMS_P2;Temp;Humidity;BMP_temperature;BMP_pressure;BME280_temperature;BME280_humidity;BME280_pressure;Samples;Min_cycle;Max_cycle;Signal;HPM_P1;HPM_P2
2022/09/21 00:00:38;;;;;;;14.75;9.30;;;9.30;99.90;;;;;;5017894;28;20052;-87
2022/09/21 00:03:04;;;;;;;12.85;10.25;;;9.30;99.90;;;;;;5014953;28;20021;-85
2022/09/21 00:05:30;;;;;;;13.57;9.57;;;9.30;99.90;;;;;;5015056;28;20022;-86
2022/09/21 00:07:59;;;;;;;14.95;9.57;;;9.30;99.90;;;;;;5019915;28;20014;-85
2022/09/21 00:10:25;;;;;;;13.95;9.38;;;9.40;99.90;;;;;;5010682;28;20017;-85
2022/09/21 00:12:51;;;;;;;13.88;8.93;;;9.40;99.90;;;;;;5019055;28;20022;-86
2022/09/21 00:15:18;;;;;;;15.10;10.02;;;9.40;99.90;;;;;;5015726;28;20014;-85
2022/09/21 00:17:46;;;;;;;13.88;10.10;;;9.40;99.90;;;;;;5022507;28;20002;-86
2022/09/21 00:20:13;;;;;;;16.75;10.07;;;9.40;99.90;;;;;;5010403;28;20065;-86
2022/09/21 00:22:40;;;;;;;14.00;9.65;;;9.40;99.90;;;;;;5017959;28;20392;-87
2022/09/21 00:25:08;;;;;;;16.90;9.33;;;9.30;99.90;;;;;;5017571;28;20035;-86
2022/09/21 00:27:34;;;;;;;16.95;10.40;;;9.30;99.90;;;;;;5018390;28;20323;-88
2022/09/21 00:30:02;;;;;;;16.77;10.10;;;9.30;99.90;;;;;;5000251;28;20042;-86
2022/09/21 00:32:30;;;;;;;;;;;9.20;99.90;;;;;;4999344;28;20030;-87
2022/09/21 00:34:57;;;;;;;15.18;10.02;;;9.20;99.90;;;;;;4998165;28;19913;-85
2022/09/21 00:37:23;;;;;;;19.98;11.18;;;9.20;99.90;;;;;;5016037;28;20032;-86
2022/09/21 00:39:49;;;;;;;16.77;11.23;;;9.10;99.90;;;;;;5002155;28;20069;-86
2022/09/21 00:42:23;;;;;;;19.83;11.13;;;9.10;99.90;;;;;;5020131;28;20018;-85
2022/09/21 00:44:49;;;;;;;11.10;9.90;;;9.10;99.90;;;;;;5031645;28;20033;-86
2022/09/21 00:47:25;;;;;;;16.58;9.65;;;9.20;99.90;;;;;;5030067;28;20064;-84
2022/09/21 00:49:54;;;;;;;19.73;10.23;;;9.10;99.90;;;;;;5022461;28;20456;-86
2022/09/21 00:52:23;;;;;;;14.55;10.02;;;9.10;99.90;;;;;;5016694;28;20029;-87
2022/09/21 00:54:53;;;;;;;14.93;10.25;;;9.10;99.90;;;;;;5014984;28;20022;-86
2022/09/21 00:57:23;;;;;;;17.42;11.02;;;9.10;99.90;;;;;;5017386;28;20044;-87
2022/09/21 00:59:53;;;;;;;17.65;11.38;;;9.10;99.90;;;;;;5001380;28;20399;-89
2022/09/21 01:02:19;;;;;;;24.77;12.48;;;9.10;99.90;;;;;;5003458;28;20551;-87
2022/09/21 01:04:46;;;;;;;19.42;12.55;;;9.00;99.90;;;;;;5027366;28;20045;-86
2022/09/21 01:07:17;;;;;;;20.63;11.77;;;9.00;99.90;;;;;;5079300;22;20111;-87
2022/09/21 01:09:48;;;;;;;24.15;11.98;;;9.00;99.90;;;;;;5034258;28;20069;-87
2022/09/21 01:12:30;;;;;;;24.45;11.48;;;9.00;99.90;;;;;;5033262;28;20024;-87
2022/09/21 01:14:59;;;;;;;17.92;12.60;;;9.00;99.90;;;;;;5017088;28;20021;-88
2022/09/21 01:17:46;;;;;;;21.73;12.38;;;9.00;99.90;;;;;;5040260;28;20026;-87
2022/09/21 01:20:50;;;;;;;17.98;12.35;;;9.00;99.90;;;;;;5042012;28;20103;-88
2022/09/21 01:23:40;;;;;;;24.35;14.57;;;9.00;99.90;;;;;;5039099;28;20053;-88
2022/09/21 01:26:28;;;;;;;21.40;12.63;;;9.00;99.90;;;;;;5026060;28;20037;-88
2022/09/21 01:29:12;;;;;;;22.70;13.80;;;9.00;99.90;;;;;;5035404;28;20089;-87
2022/09/21 01:31:43;;;;;;;21.15;12.43;;;9.00;99.90;;;;;;5042999;28;20025;-88
2022/09/21 01:34:18;;;;;;;18.17;13.48;;;9.00;99.90;;;;;;5041872;28;20387;-88
2022/09/21 01:36:47;;;;;;;22.08;14.40;;;9.00;99.90;;;;;;5033084;28;20099;-88
2022/09/21 01:39:15;;;;;;;24.83;15.32;;;9.00;99.90;;;;;;5034569;28;20033;-87
2022/09/21 01:41:43;;;;;;;21.80;13.20;;;8.90;99.90;;;;;;5039132;28;20018;-89
2022/09/21 01:44:16;;;;;;;22.55;13.18;;;9.00;99.90;;;;;;5043837;28;20026;-85
2022/09/21 01:46:45;;;;;;;19.73;14.15;;;9.00;99.90;;;;;;5053587;28;20394;-85
2022/09/21 01:49:16;;;;;;;23.20;13.98;;;9.00;99.90;;;;;;5020297;28;20095;-87
2022/09/21 01:51:50;;;;;;;18.42;13.80;;;9.00;99.90;;;;;;5036332;28;20105;-87
2022/09/21 01:54:29;;;;;;;19.73;12.98;;;8.90;99.90;;;;;;5018503;28;20053;-86
2022/09/21 01:57:06;;;;;;;26.58;12.13;;;8.90;99.90;;;;;;5018583;28;20367;-86
2022/09/21 01:59:54;;;;;;;20.02;13.32;;;8.90;99.90;;;;;;5036425;28;20056;-86
2022/09/21 02:02:35;;;;;;;24.38;13.23;;;8.90;99.90;;;;;;5037500;28;20037;-86
2022/09/21 02:05:03;;;;;;;20.10;13.00;;;8.90;99.90;;;;;;5037132;28;20022;-87
2022/09/21 02:07:31;;;;;;;21.98;13.23;;;8.90;99.90;;;;;;5014358;28;20563;-86
2022/09/21 02:09:58;;;;;;;20.15;13.95;;;8.90;99.90;;;;;;5022414;28;20045;-87
2022/09/21 02:12:24;;;;;;;18.33;12.98;;;8.90;99.90;;;;;;5030791;28;20006;-85
2022/09/21 02:14:54;;;;;;;22.40;13.93;;;8.90;99.90;;;;;;5015927;28;20048;-88
2022/09/21 02:17:55;;;;;;;21.05;14.10;;;8.90;99.90;;;;;;5038402;28;20026;-89
2022/09/21 02:20:30;;;;;;;21.73;13.82;;;8.90;99.90;;;;;;4969619;28;20062;-87
2022/09/21 02:23:22;;;;;;;19.45;13.32;;;8.80;99.90;;;;;;4956873;29;20126;-87
2022/09/21 02:26:08;;;;;;;20.40;13.90;;;8.90;99.90;;;;;;4937601;29;20393;-87
2022/09/21 02:28:39;;;;;;;18.30;12.98;;;8.90;99.90;;;;;;4959831;28;20094;-87
2022/09/21 02:31:12;;;;;;;21.33;13.55;;;8.90;99.90;;;;;;4955860;29;20489;-88
2022/09/21 02:33:54;;;;;;;21.30;13.77;;;8.90;99.90;;;;;;4961997;29;20065;-86
2022/09/21 02:36:35;;;;;;;23.52;14.18;;;8.90;99.90;;;;;;4975414;28;20039;-87
2022/09/21 02:39:11;;;;;;;18.02;13.13;;;8.90;99.90;;;;;;4960693;29;20126;-88
2022/09/21 02:41:44;;;;;;;23.25;15.93;;;8.90;99.90;;;;;;4962921;29;20031;-88
2022/09/21 02:44:31;;;;;;;26.80;14.43;;;9.00;99.90;;;;;;4980647;28;20031;-89
2022/09/21 02:47:13;;;;;;;23.20;12.32;;;9.00;99.90;;;;;;4948467;28;20023;-88
2022/09/21 02:49:50;;;;;;;19.85;13.27;;;9.10;99.90;;;;;;4971718;28;20500;-89
2022/09/21 02:52:17;;;;;;;19.52;13.13;;;9.10;99.90;;;;;;4964378;28;20031;-89
2022/09/21 02:54:47;;;;;;;24.02;12.57;;;9.10;99.90;;;;;;4992475;28;20085;-88
2022/09/21 02:57:17;;;;;;;21.80;12.85;;;9.20;99.90;;;;;;5012835;28;20556;-87
2022/09/21 02:59:43;;;;;;;21.58;12.90;;;9.20;99.90;;;;;;5021152;28;20072;-88
2022/09/21 03:02:11;;;;;;;23.52;12.45;;;9.20;99.90;;;;;;5016318;28;20097;-88
2022/09/21 03:04:40;;;;;;;;;;;9.30;99.90;;;;;;5013975;28;20076;-91
2022/09/21 03:07:06;;;;;;;18.67;12.13;;;9.40;99.90;;;;;;4998130;28;19930;-86
2022/09/21 03:09:32;;;;;;;21.10;12.68;;;9.40;99.90;;;;;;5003107;28;20042;-87
2022/09/21 03:11:58;;;;;;;25.08;13.13;;;9.50;99.90;;;;;;5012860;28;20033;-88
2022/09/21 03:14:24;;;;;;;19.83;12.73;;;9.50;99.90;;;;;;5024451;28;20542;-89
2022/09/21 03:16:50;;;;;;;20.65;14.60;;;9.60;99.90;;;;;;5025840;28;20114;-88
2022/09/21 03:19:16;;;;;;;22.95;13.13;;;9.70;99.90;;;;;;5036490;28;20029;-88
2022/09/21 03:21:42;;;;;;;22.10;13.15;;;9.70;99.90;;;;;;5045299;28;20029;-89
2022/09/21 03:24:08;;;;;;;19.27;13.68;;;9.70;99.90;;;;;;5017932;28;20073;-88
2022/09/21 03:26:35;;;;;;;17.95;13.98;;;9.90;99.90;;;;;;5031047;28;20392;-88
2022/09/21 03:29:02;;;;;;;22.70;14.57;;;9.90;99.90;;;;;;5008584;28;20025;-89
2022/09/21 03:31:30;;;;;;;23.30;13.35;;;9.90;99.90;;;;;;5012666;28;20040;-86
2022/09/21 03:33:56;;;;;;;22.95;14.13;;;10.00;99.90;;;;;;5047059;28;20056;-87
2022/09/21 03:36:21;;;;;;;22.95;14.15;;;10.10;99.90;;;;;;5021444;28;20053;-89
2022/09/21 03:38:47;;;;;;;24.45;14.32;;;10.10;99.90;;;;;;4999677;28;20054;-89
2022/09/21 03:41:14;;;;;;;21.92;13.32;;;10.10;99.90;;;;;;5030082;28;20081;-88
2022/09/21 03:43:39;;;;;;;20.45;14.07;;;10.20;99.90;;;;;;5016848;28;20026;-88
2022/09/21 03:46:05;;;;;;;19.80;14.63;;;10.20;99.90;;;;;;5019412;28;20021;-88
2022/09/21 03:48:31;;;;;;;23.52;13.27;;;10.20;99.90;;;;;;5014936;28;20104;-88
2022/09/21 03:50:57;;;;;;;21.17;14.27;;;10.30;99.90;;;;;;5016758;28;20033;-89
2022/09/21 03:53:23;;;;;;;25.08;13.63;;;10.40;99.90;;;;;;5019775;28;20018;-89
2022/09/21 03:55:49;;;;;;;21.38;14.68;;;10.50;99.90;;;;;;5017870;28;20036;-89
2022/09/21 03:58:15;;;;;;;22.73;15.80;;;10.50;99.90;;;;;;5020068;28;20070;-87
2022/09/21 04:00:41;;;;;;;27.52;16.15;;;10.50;99.90;;;;;;5019489;28;20034;-87
2022/09/21 04:03:07;;;;;;;26.17;16.00;;;10.60;99.90;;;;;;5023654;28;20037;-85
2022/09/21 04:05:33;;;;;;;27.05;16.65;;;10.60;99.90;;;;;;5009574;28;20390;-86
2022/09/21 04:08:01;;;;;;;23.33;15.05;;;10.70;99.90;;;;;;5027163;28;20406;-87
2022/09/21 04:10:32;;;;;;;29.08;16.80;;;10.80;99.90;;;;;;5021972;28;20064;-86
2022/09/21 04:13:03;;;;;;;31.92;16.27;;;10.80;99.90;;;;;;5015039;28;20018;-86
2022/09/21 04:15:30;;;;;;;24.02;15.77;;;10.80;99.90;;;;;;5018533;28;20106;-87
2022/09/21 04:17:55;;;;;;;30.42;16.75;;;10.90;99.90;;;;;;5043000;28;20000;-86
2022/09/21 04:20:22;;;;;;;27.77;16.45;;;10.90;99.90;;;;;;5020511;28;20057;-88
2022/09/21 04:22:50;;;;;;;23.25;16.13;;;10.90;99.90;;;;;;5038906;28;20025;-87
2022/09/21 04:25:16;;;;;;;22.40;15.93;;;11.00;99.90;;;;;;5041198;28;20072;-88
2022/09/21 04:27:42;;;;;;;20.77;14.23;;;11.00;99.90;;;;;;5025225;28;20032;-86
2022/09/21 04:30:11;;;;;;;21.60;12.70;;;11.10;99.90;;;;;;5029785;28;20029;-87
2022/09/21 04:32:37;;;;;;;16.73;11.25;;;11.20;99.90;;;;;;5019115;28;20052;-89
2022/09/21 04:35:03;;;;;;;20.25;12.23;;;11.20;99.90;;;;;;5029266;28;20022;-89
2022/09/21 04:37:29;;;;;;;20.05;10.77;;;11.30;99.90;;;;;;5025307;28;20044;-87
2022/09/21 04:39:55;;;;;;;19.30;11.70;;;11.40;99.90;;;;;;5004591;28;20400;-88
2022/09/21 04:42:20;;;;;;;17.45;11.77;;;11.40;99.90;;;;;;5020857;28;20033;-87
2022/09/21 04:44:46;;;;;;;15.50;11.20;;;11.50;99.90;;;;;;5022749;28;20033;-88
2022/09/21 04:47:12;;;;;;;18.73;11.40;;;11.60;99.90;;;;;;5024424;28;20022;-88
2022/09/21 04:49:38;;;;;;;17.75;12.82;;;11.70;99.90;;;;;;5026763;28;20026;-87
2022/09/21 04:52:04;;;;;;;18.95;13.60;;;11.70;99.90;;;;;;5028214;28;20030;-86
2022/09/21 04:54:30;;;;;;;20.75;14.25;;;11.70;99.90;;;;;;5027878;28;20017;-87
2022/09/21 04:56:56;;;;;;;17.70;13.05;;;11.80;99.90;;;;;;5009639;28;20372;-88
2022/09/21 04:59:22;;;;;;;22.48;14.43;;;11.80;99.90;;;;;;5021738;28;20026;-88
2022/09/21 05:01:48;;;;;;;15.75;12.40;;;11.80;99.90;;;;;;5004801;28;20041;-87
2022/09/21 05:04:14;;;;;;;16.08;12.00;;;11.80;99.90;;;;;;5023214;28;20026;-87
2022/09/21 05:06:44;;;;;;;16.73;12.38;;;11.80;99.90;;;;;;5020146;28;20459;-90
2022/09/21 05:11:55;;;;;;;19.83;11.93;;;11.90;99.90;;;;;;5010662;28;20057;-86
2022/09/21 05:14:20;;;;;;;14.68;12.80;;;11.90;99.90;;;;;;5014236;28;20048;-88
2022/09/21 05:16:48;;;;;;;19.63;11.55;;;12.00;99.90;;;;;;5006201;28;20030;-90
2022/09/21 05:19:14;;;;;;;;;;;12.10;99.90;;;;;;5008707;28;20022;-89
2022/09/21 05:21:40;;;;;;;17.02;11.15;;;12.20;99.90;;;;;;4989881;28;19905;-87
2022/09/21 05:24:06;;;;;;;15.52;11.25;;;12.20;99.90;;;;;;5016153;28;20041;-90
2022/09/21 05:26:33;;;;;;;17.08;11.85;;;12.30;99.90;;;;;;4998436;28;20033;-90
2022/09/21 05:28:59;;;;;;;14.43;10.48;;;12.40;99.90;;;;;;4998236;28;20134;-89
2022/09/21 05:31:38;;;;;;;12.13;10.20;;;12.50;99.90;;;;;;5016979;28;20061;-90
2022/09/21 05:34:34;;;;;;;12.85;10.20;;;12.70;99.90;;;;;;5021801;28;20499;-89
2022/09/21 05:37:38;;;;;;;18.48;11.77;;;12.80;99.90;;;;;;5003273;28;20428;-91
2022/09/21 05:40:05;;;;;;;16.90;11.38;;;12.90;99.90;;;;;;5006605;28;20050;-91
2022/09/21 05:42:32;;;;;;;18.83;10.77;;;12.90;99.50;;;;;;5005776;28;20094;-89
2022/09/21 05:44:58;;;;;;;18.92;11.15;;;13.00;99.40;;;;;;5007894;28;20101;-89
2022/09/21 05:47:35;;;;;;;20.98;11.80;;;13.20;98.90;;;;;;5009247;28;20050;-89
2022/09/21 05:50:38;;;;;;;15.35;10.57;;;13.30;98.30;;;;;;5011154;28;20022;-88
2022/09/21 05:53:25;;;;;;;17.08;11.85;;;13.40;98.10;;;;;;5011589;28;20022;-94
2022/09/21 05:55:56;;;;;;;16.88;11.23;;;13.50;98.00;;;;;;4989706;28;20053;-89
2022/09/21 05:58:52;;;;;;;17.63;11.40;;;13.60;97.60;;;;;;4983323;28;20081;-90
2022/09/21 06:01:52;;;;;;;17.52;11.82;;;13.70;97.20;;;;;;5011112;28;20027;-91
2022/09/21 06:04:18;;;;;;;17.08;12.40;;;13.60;97.00;;;;;;5004284;28;20037;-90
2022/09/21 06:06:44;;;;;;;18.27;12.30;;;13.60;97.00;;;;;;5007125;28;20031;-91
2022/09/21 06:09:10;;;;;;;16.88;11.77;;;13.60;96.90;;;;;;5039397;28;20045;-91
2022/09/21 06:11:35;;;;;;;21.95;12.90;;;13.70;96.80;;;;;;5051105;28;20036;-91
2022/09/21 06:14:02;;;;;;;18.80;11.73;;;13.90;96.60;;;;;;5042143;28;20018;-91
2022/09/21 06:16:40;;;;;;;22.90;11.73;;;14.10;96.00;;;;;;4997196;28;20034;-90
2022/09/21 06:19:11;;;;;;;20.77;12.77;;;14.30;95.70;;;;;;5012221;28;20065;-88
2022/09/21 06:21:37;;;;;;;24.98;12.13;;;14.50;95.30;;;;;;5023540;28;20093;-89
2022/09/21 06:24:03;;;;;;;16.25;10.52;;;14.40;94.60;;;;;;5027353;28;20049;-90
2022/09/21 06:26:29;;;;;;;17.52;10.30;;;14.30;94.60;;;;;;5033858;28;20022;-91
2022/09/21 06:28:55;;;;;;;17.05;10.52;;;14.20;94.80;;;;;;5019249;28;20092;-90
2022/09/21 06:31:21;;;;;;;15.15;10.40;;;14.40;94.80;;;;;;5017023;28;20037;-94
2022/09/21 06:33:51;;;;;;;15.98;11.52;;;14.60;94.50;;;;;;5037758;28;20022;-89
2022/09/21 06:36:17;;;;;;;10.13;7.95;;;14.80;93.60;;;;;;5008963;28;20448;-91
2022/09/21 06:38:43;;;;;;;10.68;8.52;;;14.80;93.20;;;;;;5033113;28;20365;-90
2022/09/21 06:41:11;;;;;;;15.52;9.38;;;14.80;93.10;;;;;;5031444;28;20042;-93
2022/09/21 06:43:40;;;;;;;14.18;10.05;;;14.70;93.00;;;;;;4983316;28;20038;-92
2022/09/21 06:46:06;;;;;;;17.58;11.93;;;14.70;92.90;;;;;;5031417;28;20471;-91
2022/09/21 06:48:33;;;;;;;15.88;9.85;;;14.60;93.20;;;;;;5027503;28;20033;-86
2022/09/21 06:51:05;;;;;;;31.98;16.38;;;14.50;93.30;;;;;;5006818;28;20116;-89
2022/09/21 06:53:32;;;;;;;15.75;8.88;;;14.40;93.50;;;;;;5023838;28;20045;-89
2022/09/21 06:56:16;;;;;;;14.85;9.50;;;14.40;93.80;;;;;;5007078;28;20106;-90
2022/09/21 06:58:42;;;;;;;15.82;9.60;;;14.40;94.00;;;;;;5020449;28;20022;-91
2022/09/21 07:01:12;;;;;;;10.10;8.75;;;14.60;93.60;;;;;;4998794;28;20018;-90
2022/09/21 07:03:39;;;;;;;15.63;10.18;;;14.60;93.30;;;;;;4990788;28;20026;-90
2022/09/21 07:06:07;;;;;;;11.30;9.00;;;14.70;93.40;;;;;;5006814;28;20026;-89
2022/09/21 07:08:34;;;;;;;12.48;9.18;;;15.00;93.10;;;;;;5030310;28;20046;-87
2022/09/21 07:11:01;;;;;;;21.85;12.43;;;15.20;92.60;;;;;;5049289;28;20021;-89
2022/09/21 07:13:28;;;;;;;15.90;9.93;;;15.40;92.10;;;;;;5017299;28;20013;-89
2022/09/21 07:15:55;;;;;;;13.98;9.52;;;15.60;91.70;;;;;;5012057;28;20030;-90
2022/09/21 07:18:21;;;;;;;11.23;8.35;;;15.90;91.10;;;;;;5020040;28;20058;-90
2022/09/21 07:20:56;;;;;;;9.35;7.40;;;16.00;90.60;;;;;;5021682;28;20018;-90
2022/09/21 07:23:22;;;;;;;18.65;10.25;;;16.30;90.20;;;;;;5008085;28;20047;-90
2022/09/21 07:25:52;;;;;;;15.95;10.30;;;16.60;88.80;;;;;;5016212;28;20491;-89
2022/09/21 07:28:18;;;;;;;19.50;9.70;;;16.90;87.00;;;;;;5016138;28;20034;-90
2022/09/21 07:30:48;;;;;;;13.57;9.82;;;17.30;86.00;;;;;;5035123;28;20040;-89
2022/09/21 07:33:21;;;;;;;10.57;7.65;;;17.90;84.00;;;;;;5020018;28;20022;-89
2022/09/21 07:35:57;;;;;;;14.70;7.20;;;18.50;81.10;;;;;;5007527;28;20022;-89
2022/09/21 07:38:23;;;;;;;13.40;6.82;;;18.80;77.40;;;;;;4990531;28;20109;-88
2022/09/21 07:40:49;;;;;;;11.23;7.07;;;18.70;74.90;;;;;;5002727;28;20066;-88
2022/09/21 07:43:16;;;;;;;10.55;6.07;;;18.30;75.80;;;;;;5005503;28;20037;-89
2022/09/21 07:45:43;;;;;;;13.35;7.97;;;18.10;77.00;;;;;;5013561;28;20045;-88
2022/09/21 07:48:09;;;;;;;10.13;6.20;;;18.20;77.40;;;;;;5034367;28;20033;-87
2022/09/21 07:50:35;;;;;;;12.27;7.03;;;18.30;76.80;;;;;;5043938;28;20405;-89
2022/09/21 07:53:02;;;;;;;13.10;6.50;;;18.10;76.10;;;;;;5033628;28;20040;-87
2022/09/21 07:55:29;;;;;;;9.60;5.95;;;17.90;76.50;;;;;;5045191;28;20029;-90
2022/09/21 08:00:40;;;;;;;11.18;6.18;;;17.60;76.70;;;;;;5020942;28;20116;-89
2022/09/21 08:03:06;;;;;;;17.33;7.25;;;17.60;77.70;;;;;;5010662;28;20030;-89
2022/09/21 08:05:32;;;;;;;10.30;6.57;;;17.60;77.50;;;;;;5019628;28;20032;-90
2022/09/21 08:07:59;;;;;;;14.00;7.05;;;17.60;77.20;;;;;;5023274;28;20061;-90
2022/09/21 08:10:29;;;;;;;11.90;6.75;;;17.50;77.20;;;;;;4990869;28;20038;-88
2022/09/21 08:12:58;;;;;;;10.68;6.75;;;17.50;77.40;;;;;;5001062;28;20022;-88
2022/09/21 08:15:26;;;;;;;14.38;7.55;;;17.40;77.60;;;;;;5007809;28;20027;-90
2022/09/21 08:17:52;;;;;;;14.50;9.95;;;17.10;78.00;;;;;;5024963;28;20022;-92
2022/09/21 08:20:18;;;;;;;16.20;9.82;;;16.90;79.00;;;;;;5004657;28;20397;-89
2022/09/21 08:22:44;;;;;;;12.95;8.15;;;16.80;80.30;;;;;;4994564;28;20049;-90
2022/09/21 08:25:10;;;;;;;16.48;8.52;;;16.80;80.70;;;;;;5026639;28;20029;-91
2022/09/21 08:27:39;;;;;;;16.13;9.63;;;16.70;80.30;;;;;;4986755;28;20015;-90
2022/09/21 08:30:09;;;;;;;14.55;8.43;;;16.60;80.60;;;;;;5022637;28;20068;-90
2022/09/21 08:32:34;;;;;;;18.67;10.05;;;16.50;81.10;;;;;;5019389;28;20025;-88
2022/09/21 08:35:00;;;;;;;12.40;9.20;;;16.40;81.60;;;;;;5023129;28;20507;-90
2022/09/21 08:37:26;;;;;;;19.02;9.32;;;16.30;81.80;;;;;;5006217;28;20030;-91
2022/09/21 08:39:52;;;;;;;12.68;9.07;;;16.40;82.40;;;;;;5019269;28;20022;-89
2022/09/21 08:42:47;;;;;;;16.58;9.88;;;16.60;81.40;;;;;;5026593;28;20026;-90
2022/09/21 08:45:18;;;;;;;16.08;8.98;;;17.00;80.40;;;;;;4991877;28;20034;-90
2022/09/21 08:47:49;;;;;;;19.05;9.77;;;17.20;79.60;;;;;;5001622;28;20030;-90
2022/09/21 08:50:24;;;;;;;18.08;9.60;;;17.50;78.80;;;;;;4988524;28;20101;-89
2022/09/21 08:52:56;;;;;;;9.93;7.50;;;17.40;77.30;;;;;;5008342;28;20022;-90
2022/09/21 08:55:23;;;;;;;15.93;9.07;;;16.90;77.80;;;;;;5027195;28;20022;-89
2022/09/21 08:57:49;;;;;;;16.35;7.97;;;16.60;79.40;;;;;;4996390;28;20476;-90
2022/09/21 09:00:17;;;;;;;13.20;9.90;;;16.40;81.20;;;;;;5012099;28;20023;-89
2022/09/21 09:03:17;;;;;;;16.42;6.80;;;16.30;80.90;;;;;;5017715;28;20026;-90
2022/09/21 09:05:49;;;;;;;13.75;7.00;;;16.20;80.80;;;;;;4999573;28;20476;-89
2022/09/21 09:08:37;;;;;;;12.57;7.18;;;16.40;80.20;;;;;;5028857;28;20117;-87
2022/09/21 09:11:14;;;;;;;11.80;7.20;;;16.60;80.30;;;;;;5002709;28;20039;-88
2022/09/21 09:14:10;;;;;;;11.02;5.97;;;17.60;79.90;;;;;;4992994;28;20037;-90
2022/09/21 09:17:14;;;;;;;7.97;5.95;;;19.10;73.10;;;;;;5006222;28;20030;-90
2022/09/21 09:19:53;;;;;;;9.10;6.53;;;19.00;70.60;;;;;;4999200;28;20027;-91
2022/09/21 09:22:27;;;;;;;12.20;6.88;;;18.40;71.70;;;;;;5012967;28;20113;-89
2022/09/21 09:25:03;;;;;;;8.68;6.25;;;18.20;72.60;;;;;;5001585;28;20026;-90
2022/09/21 09:27:37;;;;;;;13.45;7.13;;;17.90;72.60;;;;;;5024464;28;20097;-91
2022/09/21 09:30:20;;;;;;;9.63;4.72;;;17.60;72.20;;;;;;5027996;28;20040;-88
2022/09/21 09:32:58;;;;;;;7.78;5.10;;;17.30;72.80;;;;;;4994870;28;20034;-89
2022/09/21 09:35:40;;;;;;;7.25;4.63;;;16.90;73.90;;;;;;5006382;28;20387;-90
2022/09/21 09:38:14;;;;;;;7.00;5.13;;;16.80;75.10;;;;;;5009304;28;20023;-89
2022/09/21 09:41:05;;;;;;;8.13;5.55;;;17.00;75.30;;;;;;5018204;28;20028;-90
2022/09/21 09:43:50;;;;;;;10.93;6.82;;;17.10;74.30;;;;;;5005446;28;20037;-90
2022/09/21 09:46:28;;;;;;;15.20;5.75;;;17.20;74.30;;;;;;5007182;28;20030;-89
2022/09/21 09:49:18;;;;;;;11.40;4.22;;;17.50;73.70;;;;;;5012667;28;20082;-91
2022/09/21 09:51:44;;;;;;;10.40;5.47;;;17.70;72.60;;;;;;5032928;28;20071;-92
2022/09/21 09:54:16;;;;;;;9.65;5.60;;;18.20;71.40;;;;;;5003589;28;20634;-93
2022/09/21 09:56:43;;;;;;;7.05;4.78;;;18.60;70.10;;;;;;5001718;28;20045;-91
2022/09/21 09:59:35;;;;;;;6.67;5.27;;;18.60;68.10;;;;;;5005734;28;20022;-93
2022/09/21 10:02:20;;;;;;;3.58;3.20;;;18.60;69.50;;;;;;4995052;28;20041;-92
2022/09/21 10:05:07;;;;;;;7.03;3.90;;;18.90;66.30;;;;;;5030170;28;20022;-89
2022/09/21 10:07:39;;;;;;;5.30;4.80;;;18.50;66.20;;;;;;5022320;28;20050;-89
2022/09/21 10:10:31;;;;;;;5.32;4.05;;;18.00;68.20;;;;;;5014595;28;20495;-90
2022/09/21 10:13:09;;;;;;;8.82;5.13;;;17.80;69.10;;;;;;5025200;28;20018;-91
2022/09/21 10:15:43;;;;;;;7.95;4.78;;;17.60;70.30;;;;;;5013228;28;20487;-91
2022/09/21 10:18:19;;;;;;;7.28;4.50;;;17.40;69.90;;;;;;5046384;28;20051;-90
2022/09/21 10:21:08;;;;;;;6.53;3.70;;;17.40;71.00;;;;;;5039827;28;20093;-90
2022/09/21 10:23:36;;;;;;;5.25;3.47;;;17.30;70.50;;;;;;5013568;28;20045;-88
2022/09/21 10:26:11;;;;;;;8.07;4.22;;;17.10;70.50;;;;;;5030478;28;20026;-88
2022/09/21 10:29:20;;;;;;;9.52;4.07;;;17.00;71.10;;;;;;5007631;28;20069;-92
2022/09/21 10:32:28;;;;;;;6.30;4.43;;;16.90;71.90;;;;;;4993954;28;20155;-88
2022/09/21 10:35:07;;;;;;;7.10;4.18;;;17.00;72.30;;;;;;4956568;28;20027;-89
2022/09/21 10:37:45;;;;;;;5.82;4.07;;;17.10;71.90;;;;;;4979785;28;20035;-92
2022/09/21 10:40:20;;;;;;;7.55;3.65;;;17.10;71.60;;;;;;5002117;28;20130;-90
2022/09/21 10:42:52;;;;;;;9.98;4.57;;;16.90;72.10;;;;;;4984109;28;20448;-89
2022/09/21 10:45:37;;;;;;;8.00;4.53;;;16.80;72.30;;;;;;4991578;28;20030;-90
2022/09/21 10:48:15;;;;;;;7.45;4.80;;;16.60;72.80;;;;;;5001868;28;20373;-89
2022/09/21 10:50:44;;;;;;;9.00;4.05;;;16.50;73.00;;;;;;4995926;28;20037;-90
2022/09/21 10:53:12;;;;;;;11.70;4.95;;;16.30;73.60;;;;;;4986397;28;20046;-89
2022/09/21 10:55:42;;;;;;;16.10;5.50;;;16.20;74.50;;;;;;4987203;28;20030;-90
2022/09/21 10:58:10;;;;;;;6.18;4.63;;;16.20;75.10;;;;;;5003339;28;20039;-91
2022/09/21 11:00:50;;;;;;;7.47;5.10;;;16.30;74.50;;;;;;5005538;28;20026;-90
2022/09/21 11:03:40;;;;;;;7.45;5.15;;;16.30;74.50;;;;;;4986466;28;20125;-91
2022/09/21 11:06:37;;;;;;;9.15;5.25;;;16.40;75.00;;;;;;5012762;28;20403;-89
2022/09/21 11:09:26;;;;;;;11.68;5.55;;;16.30;75.10;;;;;;4992485;28;20046;-90
2022/09/21 11:11:57;;;;;;;12.00;5.88;;;16.10;76.20;;;;;;5000090;28;20492;-90
2022/09/21 11:14:38;;;;;;;7.28;5.97;;;16.10;76.80;;;;;;5012797;28;20551;-91
2022/09/21 11:17:15;;;;;;;9.13;6.05;;;16.10;77.00;;;;;;5006913;28;20030;-89
2022/09/21 11:20:14;;;;;;;8.73;5.68;;;16.20;77.00;;;;;;4986560;28;20034;-90
2022/09/21 11:23:17;;;;;;;15.75;5.65;;;16.20;76.70;;;;;;4999218;28;20022;-90
2022/09/21 11:26:22;;;;;;;7.13;5.80;;;16.20;76.60;;;;;;4985077;28;20140;-88
2022/09/21 11:28:54;;;;;;;7.20;4.97;;;16.10;76.60;;;;;;5012031;28;20034;-89
2022/09/21 11:31:29;;;;;;;8.23;5.07;;;16.00;76.60;;;;;;4996908;28;20038;-90
2022/09/21 11:34:15;;;;;;;6.72;5.20;;;15.90;77.20;;;;;;4987399;28;20106;-89
2022/09/21 11:37:20;;;;;;;7.60;6.00;;;15.80;77.20;;;;;;4989865;28;20023;-90
2022/09/21 11:40:03;;;;;;;7.40;5.20;;;15.70;77.70;;;;;;5002385;28;20302;-90
2022/09/21 11:42:46;;;;;;;10.13;6.00;;;15.70;77.90;;;;;;4995053;28;20034;-90
2022/09/21 11:46:04;;;;;;;7.85;5.18;;;15.70;78.10;;;;;;5000186;28;20080;-90
2022/09/21 11:49:13;;;;;;;9.25;5.25;;;15.70;78.00;;;;;;4918919;29;20552;-89
2022/09/21 11:52:05;;;;;;;9.02;5.43;;;15.70;78.30;;;;;;4925223;29;20051;-88
2022/09/21 11:55:09;;;;;;;10.77;5.18;;;15.80;78.10;;;;;;4904385;29;20032;-88
2022/09/21 11:57:56;;;;;;;8.52;5.55;;;15.80;77.30;;;;;;4922459;29;20419;-89
2022/09/21 12:00:36;;;;;;;9.82;5.20;;;15.80;78.00;;;;;;4923585;29;20096;-91
2022/09/21 12:03:32;;;;;;;8.35;5.03;;;15.80;78.10;;;;;;4924716;29;20068;-88
2022/09/21 12:06:15;;;;;;;7.13;4.50;;;15.80;77.80;;;;;;4944590;29;20039;-90
2022/09/21 12:09:21;;;;;;;11.30;5.65;;;15.80;77.20;;;;;;4950839;29;20046;-89
2022/09/21 12:12:15;;;;;;;9.47;4.30;;;15.70;77.70;;;;;;4926254;29;20052;-90
2022/09/21 12:14:52;;;;;;;12.40;5.30;;;15.70;78.30;;;;;;4938893;29;20024;-91
2022/09/21 12:17:37;;;;;;;9.35;4.47;;;15.60;78.30;;;;;;4944689;29;20190;-90
2022/09/21 12:20:17;;;;;;;14.07;5.95;;;15.60;78.70;;;;;;5016099;28;20038;-90
2022/09/21 12:22:50;;;;;;;9.68;5.13;;;15.60;79.00;;;;;;5018836;28;20017;-91
2022/09/21 12:25:38;;;;;;;10.18;5.85;;;15.50;78.80;;;;;;5002603;28;20054;-89
2022/09/21 12:28:25;;;;;;;13.75;5.15;;;15.50;78.70;;;;;;5002455;28;20037;-90
2022/09/21 12:31:02;;;;;;;11.05;5.38;;;15.50;79.00;;;;;;5021816;28;20070;-89
2022/09/21 12:33:39;;;;;;;9.90;4.87;;;15.40;79.40;;;;;;4991302;28;20034;-90
2022/09/21 12:36:22;;;;;;;8.18;4.32;;;15.40;79.50;;;;;;5014061;28;20559;-90
2022/09/21 12:38:56;;;;;;;14.35;6.75;;;15.40;80.10;;;;;;4987124;28;20376;-89
2022/09/21 12:41:38;;;;;;;14.43;6.65;;;15.30;80.00;;;;;;4986868;28;20026;-88
2022/09/21 12:44:25;;;;;;;14.32;5.55;;;15.30;80.50;;;;;;5003500;28;20026;-89
2022/09/21 12:47:07;;;;;;;;;;;15.30;80.50;;;;;;4994765;28;20026;-89
2022/09/21 12:49:43;;;;;;;20.42;6.38;;;15.30;80.60;;;;;;5024027;28;19910;-89
2022/09/21 12:52:15;;;;;;;8.60;5.30;;;15.10;81.50;;;;;;5022457;28;20026;-90
2022/09/21 12:55:03;;;;;;;11.23;5.10;;;15.10;81.70;;;;;;5007075;28;20022;-91
2022/09/21 12:57:30;;;;;;;10.40;5.20;;;15.10;82.10;;;;;;4994709;28;20034;-88
2022/09/21 13:00:12;;;;;;;6.85;4.80;;;15.10;82.40;;;;;;4997745;28;20113;-89
2022/09/21 13:03:03;;;;;;;7.53;4.55;;;15.10;82.00;;;;;;5013327;28;20039;-90
2022/09/21 13:05:34;;;;;;;12.38;5.57;;;15.10;82.20;;;;;;5009873;28;20026;-89
2022/09/21 13:08:03;;;;;;;6.20;4.20;;;15.20;82.50;;;;;;5009553;28;20062;-90
2022/09/21 13:10:40;;;;;;;15.23;5.80;;;15.20;82.60;;;;;;5025102;28;20022;-90
2022/09/21 13:13:22;;;;;;;15.77;5.13;;;15.10;82.90;;;;;;5026156;28;20033;-91
2022/09/21 13:15:49;;;;;;;9.13;5.10;;;15.10;83.10;;;;;;5008083;28;20022;-90
2022/09/21 13:18:31;;;;;;;7.13;4.13;;;15.10;82.90;;;;;;5008235;28;20136;-89